Time;durP1;ratioP1;P1;durP2;ratioP2;P2;SDS_P1;SDS_P2;PMS_P1;PMS_P2;Temp;Humidity;BMP_temperature;BMP_pressure;BME280_temperature;BME280_humidity;BME280_pressure;Samples;Min_cycle;Max_cycle;Signal;HPM_P1;HPM_P2
2023/12/11 00:01:19;;;;;;;59.70;7.43;;;;;;;8.99;100.00;99833.31;5032850;28;20033;-72
2023/12/11 00:03:44;;;;;;;48.95;6.80;;;;;;;9.01;100.00;99840.16;5031654;28;20114;-72
2023/12/11 00:06:10;;;;;;;50.13;6.97;;;;;;;9.08;100.00;99822.41;5032443;28;20380;-73
2023/12/11 00:08:36;;;;;;;54.92;7.20;;;;;;;9.12;100.00;99825.72;5033570;28;20045;-73
2023/12/11 00:11:01;;;;;;;55.60;7.38;;;;;;;9.10;100.00;99833.63;5028332;28;20248;-72
2023/12/11 00:13:27;;;;;;;55.67;7.75;;;;;;;9.12;100.00;99823.94;5034464;28;20037;-71
2023/12/11 00:15:52;;;;;;;42.42;6.00;;;;;;;9.13;100.00;99814.31;5033334;28;20040;-73
2023/12/11 00:18:18;;;;;;;70.60;7.88;;;;;;;9.11;100.00;99826.63;5028295;28;20034;-73
2023/12/11 00:20:43;;;;;;;43.88;6.38;;;;;;;9.09;100.00;99813.63;5033045;28;20256;-73
2023/12/11 00:23:08;;;;;;;43.13;5.68;;;;;;;9.11;100.00;99824.84;5029098;28;20045;-73
2023/12/11 00:25:35;;;;;;;47.08;7.28;;;;;;;9.10;100.00;99817.94;5033346;28;20061;-73
2023/12/11 00:28:00;;;;;;;64.07;7.65;;;;;;;9.13;100.00;99816.94;5033231;28;20049;-73
2023/12/11 00:30:26;;;;;;;46.05;6.60;;;;;;;9.13;100.00;99811.72;5033654;28;20044;-73
2023/12/11 00:32:52;;;;;;;52.00;6.13;;;;;;;9.17;100.00;99815.88;5033105;28;20061;-73
2023/12/11 00:35:18;;;;;;;46.17;5.85;;;;;;;9.16;100.00;99819.41;5033993;28;20048;-73
2023/12/11 00:37:43;;;;;;;44.63;7.85;;;;;;;9.20;100.00;99821.78;5032585;28;20033;-73
2023/12/11 00:40:09;;;;;;;49.70;7.00;;;;;;;9.20;100.00;99806.13;5032806;28;20243;-73
2023/12/11 00:42:34;;;;;;;54.25;7.32;;;;;;;9.21;100.00;99804.34;5032676;28;20035;-73
2023/12/11 00:45:00;;;;;;;63.75;6.97;;;;;;;9.20;100.00;99807.88;5033848;28;20113;-73
2023/12/11 00:47:25;;;;;;;54.03;8.57;;;;;;;9.21;100.00;99804.34;5033722;28;20360;-73
2023/12/11 00:49:50;;;;;;;49.28;7.38;;;;;;;9.22;100.00;99809.50;5033611;28;20048;-73
2023/12/11 00:52:16;;;;;;;63.88;7.07;;;;;;;9.21;100.00;99802.56;5033433;28;20037;-73
2023/12/11 00:54:42;;;;;;;55.55;6.97;;;;;;;9.22;100.00;99795.56;5033006;28;20072;-73
2023/12/11 00:57:07;;;;;;;51.53;7.22;;;;;;;9.25;100.00;99789.34;5033662;28;20041;-72
2023/12/11 00:59:32;;;;;;;55.67;7.00;;;;;;;9.27;100.00;99788.34;5033400;28;20045;-73
2023/12/11 01:01:58;;;;;;;51.58;7.32;;;;;;;9.26;100.00;99791.03;5033574;28;20039;-73
2023/12/11 01:04:23;;;;;;;47.85;6.63;;;;;;;9.25;100.00;99792.81;5033430;28;20324;-73
2023/12/11 01:06:48;;;;;;;44.80;6.00;;;;;;;9.31;100.00;99796.88;5033735;28;20041;-73
2023/12/11 01:09:14;;;;;;;43.92;6.35;;;;;;;9.31;100.00;99783.81;5033265;28;20048;-73
2023/12/11 01:11:40;;;;;;;49.00;7.00;;;;;;;9.30;100.00;99788.19;5032874;28;20029;-73
2023/12/11 01:14:05;;;;;;;40.65;5.43;;;;;;;9.31;100.00;99779.41;5033203;28;20056;-73
2023/12/11 01:16:31;;;;;;;51.95;7.60;;;;;;;9.29;100.00;99776.03;5032857;28;20074;-73
2023/12/11 01:18:56;;;;;;;43.63;6.35;;;;;;;9.28;100.00;99769.13;5033055;28;20045;-73
2023/12/11 01:21:22;;;;;;;47.58;6.25;;;;;;;9.27;100.00;99764.81;5033484;28;20033;-73
2023/12/11 01:23:47;;;;;;;48.72;7.38;;;;;;;9.26;100.00;99755.31;5032297;28;20041;-73
2023/12/11 01:26:12;;;;;;;33.75;5.70;;;;;;;9.27;100.00;99757.00;5033549;28;20060;-73
2023/12/11 01:28:38;;;;;;;60.40;5.35;;;;;;;9.27;100.00;99749.16;4994873;28;1099522;-73
2023/12/11 01:31:04;;;;;;;43.65;7.47;;;;;;;9.27;100.00;99740.47;5033854;28;20084;-73
2023/12/11 01:33:29;;;;;;;42.90;6.35;;;;;;;9.26;100.00;99747.47;5033400;28;20123;-73
2023/12/11 01:35:54;;;;;;;48.80;6.55;;;;;;;9.27;100.00;99749.16;5034254;28;20037;-73
2023/12/11 01:38:20;;;;;;;66.80;7.35;;;;;;;9.28;100.00;99752.59;5032560;28;20048;-73
2023/12/11 01:40:45;;;;;;;52.00;6.80;;;;;;;9.28;100.00;99750.84;5034025;28;20510;-73
2023/12/11 01:43:12;;;;;;;50.65;6.30;;;;;;;9.29;100.00;99749.91;5032967;28;20310;-73
2023/12/11 01:45:39;;;;;;;54.38;6.13;;;;;;;9.26;100.00;99744.00;5033437;28;20242;-73
2023/12/11 01:48:05;;;;;;;38.65;5.55;;;;;;;9.23;100.00;99726.72;5033198;28;20519;-73
2023/12/11 01:50:31;;;;;;;37.08;5.18;;;;;;;9.22;100.00;99748.53;5032910;28;20045;-73
2023/12/11 01:52:57;;;;;;;48.03;7.00;;;;;;;9.21;100.00;99726.81;5032324;28;20030;-73
2023/12/11 01:55:23;;;;;;;55.47;7.40;;;;;;;9.18;100.00;99721.75;5033138;28;20260;-73
2023/12/11 01:57:49;;;;;;;42.55;5.88;;;;;;;9.19;100.00;99712.16;5033224;28;20094;-73
2023/12/11 02:00:15;;;;;;;47.60;7.50;;;;;;;9.16;100.00;99734.03;5032976;28;20033;-73
2023/12/11 02:02:41;;;;;;;51.03;6.32;;;;;;;9.15;100.00;99721.91;5033207;28;20088;-73
2023/12/11 02:05:06;;;;;;;40.80;7.10;;;;;;;9.17;100.00;99717.47;5033688;28;20124;-73
2023/12/11 02:07:32;;;;;;;44.50;5.70;;;;;;;9.20;100.00;99734.72;5033487;28;20042;-73
2023/12/11 02:09:57;;;;;;;54.20;7.63;;;;;;;9.22;100.00;99738.97;5033357;28;20043;-73
2023/12/11 02:12:22;;;;;;;56.92;8.30;;;;;;;9.24;100.00;99720.59;5033426;28;20360;-73
2023/12/11 02:14:48;;;;;;;37.58;5.82;;;;;;;9.23;100.00;99724.13;5032638;28;20068;-73
2023/12/11 02:17:13;;;;;;;41.65;6.15;;;;;;;9.20;100.00;99717.31;5033763;28;20037;-73
2023/12/11 02:19:39;;;;;;;46.70;6.72;;;;;;;9.22;100.00;99702.38;5014745;28;20037;-73
2023/12/11 02:22:04;;;;;;;46.67;6.68;;;;;;;9.22;100.00;99727.66;5034035;28;20052;-73
2023/12/11 02:24:38;;;;;;;55.85;7.20;;;;;;;9.19;100.00;99727.81;5032313;28;20051;-73
2023/12/11 02:27:04;;;;;;;60.47;7.28;;;;;;;9.19;100.00;99712.16;5033741;28;20423;-73
2023/12/11 02:29:29;;;;;;;46.42;5.75;;;;;;;9.18;100.00;99700.00;5032830;28;20057;-73
2023/12/11 02:31:54;;;;;;;59.45;7.75;;;;;;;9.18;100.00;99693.00;5033678;28;20112;-74
2023/12/11 02:34:20;;;;;;;54.53;6.45;;;;;;;9.18;100.00;99700.00;5033114;28;20044;-73
2023/12/11 02:36:45;;;;;;;49.28;6.28;;;;;;;9.16;100.00;99702.69;5015044;28;20255;-73
2023/12/11 02:39:10;;;;;;;53.13;6.45;;;;;;;9.19;100.00;99688.66;5033097;28;20061;-73
2023/12/11 02:41:36;;;;;;;48.80;7.03;;;;;;;9.20;100.00;99691.19;5032653;28;20033;-73
2023/12/11 02:44:01;;;;;;;50.53;6.82;;;;;;;9.25;100.00;99684.84;5033332;28;20068;-73
2023/12/11 02:46:26;;;;;;;41.17;5.10;;;;;;;9.25;100.00;99688.31;5033213;28;20048;-73
2023/12/11 02:48:52;;;;;;;45.97;6.40;;;;;;;9.27;100.00;99675.16;5033291;28;20033;-73
2023/12/11 02:51:17;;;;;;;59.22;7.10;;;;;;;9.28;100.00;99688.16;5033559;28;20135;-73
2023/12/11 02:53:43;;;;;;;48.08;6.15;;;;;;;9.30;100.00;99677.63;5032210;28;20130;-73
2023/12/11 02:56:08;;;;;;;43.65;6.38;;;;;;;9.31;100.00;99671.44;5036507;28;20299;-73
2023/12/11 02:58:34;;;;;;;56.78;6.82;;;;;;;9.31;100.00;99671.44;5035672;28;20512;-73
2023/12/11 03:01:00;;;;;;;43.65;6.88;;;;;;;9.29;100.00;99657.63;5036425;28;20040;-73
2023/12/11 03:03:25;;;;;;;56.60;7.00;;;;;;;9.33;100.00;99666.97;5036174;28;20048;-73
2023/12/11 03:05:51;;;;;;;53.15;7.32;;;;;;;9.36;100.00;99664.22;5036620;28;20039;-73
2023/12/11 03:08:16;;;;;;;55.50;6.68;;;;;;;9.33;100.00;99646.09;5036203;28;20387;-73
2023/12/11 03:10:41;;;;;;;43.03;6.35;;;;;;;9.29;100.00;99655.84;5035757;28;20425;-73
2023/12/11 03:13:07;;;;;;;63.80;7.15;;;;;;;9.32;100.00;99658.31;5036369;28;20049;-73
2023/12/11 03:15:32;;;;;;;63.00;8.05;;;;;;;9.33;100.00;99675.69;5035788;28;20556;-73
2023/12/11 03:17:58;;;;;;;51.88;6.85;;;;;;;9.37;100.00;99648.47;5036596;28;20053;-73
2023/12/11 03:20:24;;;;;;;45.03;6.40;;;;;;;9.35;100.00;99652.06;5035876;28;20047;-73
2023/12/11 03:22:49;;;;;;;53.47;7.35;;;;;;;9.30;100.00;99639.25;5036401;28;20053;-73
2023/12/11 03:25:15;;;;;;;44.88;6.07;;;;;;;9.25;100.00;99630.00;5035761;28;20074;-73
2023/12/11 03:27:40;;;;;;;51.60;7.72;;;;;;;9.25;100.00;99638.66;5035939;28;20049;-73
2023/12/11 03:30:06;;;;;;;52.22;6.88;;;;;;;9.23;100.00;99640.53;5036489;28;20033;-73
2023/12/11 03:32:32;;;;;;;55.00;7.75;;;;;;;9.17;100.00;99630.41;5035932;28;20037;-73
2023/12/11 03:34:57;;;;;;;62.83;7.28;;;;;;;9.18;100.00;99625.09;5036280;28;20368;-73
2023/12/11 03:37:23;;;;;;;53.40;6.28;;;;;;;9.18;100.00;99632.91;5036049;28;20263;-73
2023/12/11 03:39:48;;;;;;;59.97;8.43;;;;;;;9.15;100.00;99643.56;5017786;28;20094;-73
2023/12/11 03:42:14;;;;;;;48.35;6.88;;;;;;;9.16;100.00;99636.56;5018377;28;20037;-73
2023/12/11 03:44:39;;;;;;;51.50;6.68;;;;;;;9.16;100.00;99628.72;5035490;28;20052;-73
2023/12/11 03:47:05;;;;;;;41.97;5.05;;;;;;;9.14;100.00;99633.19;5035502;28;20060;-73
2023/12/11 03:49:30;;;;;;;64.75;8.80;;;;;;;9.10;100.00;99635.13;5034168;28;20037;-73
2023/12/11 03:51:55;;;;;;;51.00;6.38;;;;;;;9.13;100.00;99619.28;5034674;28;20386;-73
2023/12/11 03:54:21;;;;;;;49.88;6.97;;;;;;;9.11;100.00;99622.91;5035029;28;20049;-73
2023/12/11 03:56:46;;;;;;;48.40;7.05;;;;;;;9.09;100.00;99616.91;5034793;28;20037;-73
2023/12/11 03:59:13;;;;;;;47.45;6.28;;;;;;;9.08;100.00;99618.69;5035147;28;20037;-73
2023/12/11 04:01:38;;;;;;;42.60;5.80;;;;;;;9.08;100.00;99604.78;5034815;28;20355;-73
2023/12/11 04:04:04;;;;;;;36.30;5.95;;;;;;;9.09;100.00;99622.13;5035687;28;20029;-73
2023/12/11 04:06:29;;;;;;;46.47;5.82;;;;;;;9.11;100.00;99609.84;5034217;28;20221;-72
2023/12/11 04:08:54;;;;;;;48.83;5.95;;;;;;;9.12;100.00;99614.97;5035379;28;20029;-73
2023/12/11 04:11:20;;;;;;;41.50;5.25;;;;;;;9.12;100.00;99608.91;5035478;28;20226;-73
2023/12/11 04:13:45;;;;;;;56.00;6.32;;;;;;;9.14;100.00;99610.50;5035234;28;20347;-73
2023/12/11 04:16:11;;;;;;;41.72;6.05;;;;;;;9.18;100.00;99600.75;5035399;28;20361;-73
2023/12/11 04:18:37;;;;;;;38.58;5.78;;;;;;;9.23;100.00;99617.00;5034976;28;20067;-73
2023/12/11 04:21:03;;;;;;;46.83;6.60;;;;;;;9.28;100.00;99614.13;5035223;28;20252;-73
2023/12/11 04:23:29;;;;;;;41.08;5.25;;;;;;;9.29;100.00;99605.38;5034883;28;20083;-73
2023/12/11 04:25:58;;;;;;;35.92;5.70;;;;;;;9.32;100.00;99603.44;5034922;28;20392;-72
2023/12/11 04:28:27;;;;;;;47.25;5.65;;;;;;;9.31;100.00;99600.91;5036616;28;20500;-73
2023/12/11 04:30:52;;;;;;;38.78;5.15;;;;;;;9.34;100.00;99608.59;5034696;28;20033;-72
2023/12/11 04:33:18;;;;;;;40.80;5.35;;;;;;;9.32;100.00;99602.59;5035370;28;20271;-73
2023/12/11 04:35:44;;;;;;;49.35;5.97;;;;;;;9.31;100.00;99595.69;5033990;28;20083;-73
2023/12/11 04:38:10;;;;;;;32.55;4.75;;;;;;;9.28;100.00;99593.22;5035024;28;20037;-73
2023/12/11 04:40:35;;;;;;;49.78;5.97;;;;;;;9.28;100.00;99606.28;5034037;28;20029;-73
2023/12/11 04:43:01;;;;;;;41.75;5.47;;;;;;;9.28;100.00;99594.09;5035200;28;20352;-72
2023/12/11 04:45:26;;;;;;;46.42;6.25;;;;;;;9.27;100.00;99589.78;5034245;28;20356;-73
2023/12/11 04:47:52;;;;;;;34.63;5.30;;;;;;;9.30;100.00;99587.00;5035205;28;20033;-73
2023/12/11 04:50:17;;;;;;;39.88;5.55;;;;;;;9.30;100.00;99592.25;5035181;28;20037;-73
2023/12/11 04:52:42;;;;;;;40.28;6.88;;;;;;;9.29;100.00;99574.03;5033923;28;20091;-72
2023/12/11 04:55:08;;;;;;;36.83;4.80;;;;;;;9.29;100.00;99572.25;5034143;28;20120;-73
2023/12/11 04:57:33;;;;;;;39.50;5.50;;;;;;;9.30;100.00;99587.00;5033824;28;20048;-73
2023/12/11 04:59:59;;;;;;;37.95;4.97;;;;;;;9.30;100.00;99568.72;5034593;28;20037;-73
2023/12/11 05:02:24;;;;;;;39.88;4.60;;;;;;;9.31;100.00;99596.50;5033920;28;20296;-73
2023/12/11 05:04:49;;;;;;;36.33;5.85;;;;;;;9.30;100.00;99579.16;5033736;28;20033;-72
2023/12/11 05:07:15;;;;;;;42.80;5.72;;;;;;;9.29;100.00;99585.31;5034718;28;20483;-73
2023/12/11 05:09:40;;;;;;;38.55;5.55;;;;;;;9.29;100.00;99589.69;5033910;28;20025;-72
2023/12/11 05:12:06;;;;;;;28.83;4.63;;;;;;;9.28;100.00;99586.25;5034457;28;20095;-72
2023/12/11 05:14:31;;;;;;;41.50;6.25;;;;;;;9.22;100.00;99595.28;5033564;28;20386;-72
2023/12/11 05:16:56;;;;;;;28.75;4.53;;;;;;;9.18;100.00;99578.06;5034298;28;20033;-72
2023/12/11 05:19:22;;;;;;;32.08;4.07;;;;;;;9.16;100.00;99561.63;5034283;28;20025;-72
2023/12/11 05:21:47;;;;;;;26.40;4.75;;;;;;;9.19;100.00;99568.47;5033683;28;20367;-72
2023/12/11 05:24:14;;;;;;;28.48;4.10;;;;;;;9.20;100.00;99570.16;5033914;28;20064;-72
2023/12/11 05:26:39;;;;;;;24.33;3.92;;;;;;;9.20;100.00;99562.31;5033787;28;20037;-72
2023/12/11 05:29:04;;;;;;;36.03;4.20;;;;;;;9.23;100.00;99572.59;5033885;28;20073;-72
2023/12/11 05:31:30;;;;;;;24.27;4.43;;;;;;;9.22;100.00;99610.09;5033465;28;20364;-73
2023/12/11 05:33:56;;;;;;;22.40;4.07;;;;;;;9.23;100.00;99570.81;5034126;28;20041;-72
2023/12/11 05:36:22;;;;;;;20.25;3.72;;;;;;;9.18;100.00;99609.41;5034068;28;20116;-73
2023/12/11 05:38:47;;;;;;;29.20;3.95;;;;;;;9.15;100.00;99572.16;5033205;28;20083;-72
2023/12/11 05:41:13;;;;;;;26.92;3.10;;;;;;;9.08;100.00;99565.59;5034032;28;20233;-72
2023/12/11 05:43:38;;;;;;;15.82;2.78;;;;;;;9.08;100.00;99576.03;5015527;28;20037;-72
2023/12/11 05:46:04;;;;;;;33.00;5.03;;;;;;;9.05;100.00;99561.41;5033855;28;20048;-72
2023/12/11 05:48:29;;;;;;;28.80;3.60;;;;;;;9.03;100.00;99571.09;5032783;28;20064;-72
2023/12/11 05:50:54;;;;;;;25.35;4.30;;;;;;;9.04;100.00;99583.22;5032433;28;20025;-72
2023/12/11 05:53:20;;;;;;;26.65;3.13;;;;;;;9.01;100.00;99584.22;5031941;28;20094;-72
2023/12/11 05:55:45;;;;;;;23.90;3.55;;;;;;;9.03;100.00;99578.91;5032050;28;20037;-72
2023/12/11 05:58:11;;;;;;;19.30;3.22;;;;;;;9.03;100.00;99571.09;5032569;28;20119;-73
2023/12/11 06:00:36;;;;;;;24.08;3.53;;;;;;;9.05;100.00;99571.00;5032518;28;20060;-72
2023/12/11 06:03:02;;;;;;;41.15;4.35;;;;;;;9.09;100.00;99585.56;5033509;28;20037;-72
2023/12/11 06:05:27;;;;;;;27.60;3.50;;;;;;;9.10;100.00;99582.06;5032696;28;20370;-72
2023/12/11 06:07:52;;;;;;;22.67;3.70;;;;;;;9.11;100.00;99571.50;5033867;28;20049;-72
2023/12/11 06:10:18;;;;;;;28.80;3.42;;;;;;;9.13;100.00;99595.78;5033801;28;20112;-72
2023/12/11 06:12:43;;;;;;;22.98;3.65;;;;;;;9.16;100.00;99579.09;5032967;28;20042;-72
2023/12/11 06:15:09;;;;;;;21.23;2.92;;;;;;;9.20;100.00;99578.00;5034028;28;20041;-72
2023/12/11 06:17:34;;;;;;;32.72;4.43;;;;;;;9.19;100.00;99581.53;5033239;28;20033;-72
2023/12/11 06:19:59;;;;;;;24.17;3.38;;;;;;;9.16;100.00;99582.53;5033869;28;20041;-72
2023/12/11 06:22:25;;;;;;;29.88;4.57;;;;;;;9.12;100.00;99614.16;5030826;28;20293;-72
2023/12/11 06:24:50;;;;;;;18.30;3.35;;;;;;;9.04;100.00;99625.00;5014415;28;20029;-72
2023/12/11 06:27:16;;;;;;;22.80;3.55;;;;;;;8.96;100.00;99601.91;5031759;28;20043;-72
2023/12/11 06:29:41;;;;;;;23.42;3.83;;;;;;;8.94;100.00;99627.25;5034317;28;20037;-72
2023/12/11 06:32:08;;;;;;;24.30;3.70;;;;;;;8.96;100.00;99624.56;5036168;28;20049;-72
2023/12/11 06:34:34;;;;;;;19.85;2.80;;;;;;;8.93;100.00;99643.00;5036854;28;20336;-73
2023/12/11 06:36:59;;;;;;;29.83;4.78;;;;;;;8.92;100.00;99652.59;5037440;28;20503;-72
2023/12/11 06:39:26;;;;;;;27.70;4.20;;;;;;;8.88;100.00;99640.66;5037083;28;20298;-72
2023/12/11 06:41:52;;;;;;;24.98;3.95;;;;;;;8.85;100.00;99651.25;5032790;28;20026;-72
2023/12/11 06:44:18;;;;;;;28.48;3.88;;;;;;;8.83;100.00;99651.31;5037285;28;20201;-72
2023/12/11 06:46:43;;;;;;;35.47;5.00;;;;;;;8.79;100.00;99675.06;5036241;28;20041;-72
2023/12/11 06:49:08;;;;;;;25.85;3.67;;;;;;;8.75;100.00;99678.75;5037036;28;20033;-73
2023/12/11 06:51:35;;;;;;;31.50;4.38;;;;;;;8.73;100.00;99688.41;5036360;28;20210;-73
2023/12/11 06:54:00;;;;;;;24.10;3.25;;;;;;;8.73;100.00;99665.78;5036280;28;20037;-73
2023/12/11 06:56:30;;;;;;;17.02;3.45;;;;;;;8.73;100.00;99677.97;5035476;28;20225;-73
2023/12/11 06:58:56;;;;;;;19.13;2.72;;;;;;;8.72;100.00;99681.53;5036724;28;20276;-71
2023/12/11 07:01:26;;;;;;;21.42;3.90;;;;;;;8.74;100.00;99659.63;5036650;28;20064;-71
2023/12/11 07:03:53;;;;;;;24.80;4.43;;;;;;;8.72;100.00;99679.75;5036509;28;20041;-71
2023/12/11 07:06:18;;;;;;;14.32;2.88;;;;;;;8.77;100.00;99667.31;5036503;28;20037;-71
2023/12/11 07:08:44;;;;;;;12.68;2.35;;;;;;;8.79;100.00;99702.00;5035811;28;20267;-71
2023/12/11 07:11:09;;;;;;;23.30;2.60;;;;;;;8.86;100.00;99688.63;5036193;28;20041;-71
2023/12/11 07:13:35;;;;;;;9.70;2.13;;;;;;;8.83;100.00;99700.09;5033811;28;20044;-71
2023/12/11 07:16:00;;;;;;;17.67;2.90;;;;;;;8.86;100.00;99715.59;5035106;28;20217;-73
2023/12/11 07:18:25;;;;;;;15.27;2.15;;;;;;;8.86;100.00;99707.78;5035832;28;20041;-73
2023/12/11 07:20:51;;;;;;;17.30;3.00;;;;;;;8.94;100.00;99716.03;5036015;28;20268;-71
2023/12/11 07:23:16;;;;;;;10.73;2.00;;;;;;;8.94;100.00;99723.88;5036239;28;20037;-71
2023/12/11 07:25:43;;;;;;;15.57;2.17;;;;;;;8.98;100.00;99740.22;5035836;28;20048;-71
2023/12/11 07:28:09;;;;;;;14.27;2.10;;;;;;;8.99;100.00;99749.75;5034820;28;20041;-72
2023/12/11 07:30:35;;;;;;;16.58;2.42;;;;;;;8.95;100.00;99749.06;5034640;28;20041;-72
2023/12/11 07:33:00;;;;;;;20.67;3.70;;;;;;;8.93;100.00;99753.53;5025234;28;20033;-72
2023/12/11 07:35:25;;;;;;;14.40;3.28;;;;;;;8.93;100.00;99748.31;5034213;28;20303;-72
2023/12/11 07:37:51;;;;;;;13.82;2.83;;;;;;;8.92;100.00;99761.44;5034554;28;20065;-72
2023/12/11 07:40:17;;;;;;;14.35;2.30;;;;;;;8.92;100.00;99757.06;5034014;28;20221;-72
2023/12/11 07:42:42;;;;;;;13.85;2.72;;;;;;;8.90;100.00;99763.28;5034124;28;20295;-73
2023/12/11 07:45:08;;;;;;;14.73;2.00;;;;;;;8.90;100.00;99774.56;5034659;28;20033;-72
2023/12/11 07:47:34;;;;;;;16.15;2.53;;;;;;;8.90;100.00;99792.00;5032937;28;20087;-72
2023/12/11 07:50:03;;;;;;;13.70;2.05;;;;;;;8.87;100.00;99781.72;5034072;28;20040;-73
2023/12/11 07:52:29;;;;;;;12.90;1.92;;;;;;;8.88;100.00;99789.47;5033716;28;20040;-73
2023/12/11 07:54:55;;;;;;;15.13;2.42;;;;;;;8.88;100.00;99802.53;5034366;28;20041;-72
2023/12/11 07:57:20;;;;;;;12.90;1.90;;;;;;;8.87;100.00;99826.09;5032930;28;20036;-72
2023/12/11 07:59:46;;;;;;;11.93;2.95;;;;;;;8.86;100.00;99801.75;5031382;28;20316;-72
2023/12/11 08:02:11;;;;;;;19.77;3.08;;;;;;;8.88;100.00;99819.94;5033554;28;20029;-72
2023/12/11 08:04:38;;;;;;;12.88;2.13;;;;;;;8.86;100.00;99820.03;5034745;28;20029;-73
2023/12/11 08:07:04;;;;;;;13.75;1.83;;;;;;;8.81;100.00;99827.25;5034943;28;20240;-73
2023/12/11 08:09:29;;;;;;;19.92;2.30;;;;;;;8.81;100.00;99825.47;5033739;28;20037;-73
2023/12/11 08:11:55;;;;;;;11.93;2.38;;;;;;;8.82;100.00;99829.78;5034084;28;20032;-73
2023/12/11 08:14:20;;;;;;;17.45;2.55;;;;;;;8.75;100.00;99859.72;5033503;28;20249;-73
2023/12/11 08:16:46;;;;;;;10.70;2.25;;;;;;;8.72;100.00;99870.31;5033684;28;20356;-73
2023/12/11 08:19:12;;;;;;;13.35;2.45;;;;;;;8.71;100.00;99870.38;5034003;28;20033;-73
2023/12/11 08:21:37;;;;;;;18.25;2.30;;;;;;;8.62;100.00;99877.75;5034208;28;20029;-73
2023/12/11 08:24:03;;;;;;;16.65;2.55;;;;;;;8.57;100.00;99887.56;5034003;28;20030;-73
2023/12/11 08:26:29;;;;;;;15.25;2.67;;;;;;;8.51;100.00;99903.47;5034090;28;20045;-73
2023/12/11 08:28:54;;;;;;;19.40;3.00;;;;;;;8.48;100.00;99902.78;5016944;28;20084;-73
2023/12/11 08:31:20;;;;;;;20.55;3.38;;;;;;;8.45;100.00;99909.84;5034680;28;20045;-73
2023/12/11 08:33:45;;;;;;;12.52;2.80;;;;;;;8.42;100.00;99923.06;5030163;28;20045;-73
2023/12/11 08:36:11;;;;;;;12.98;2.65;;;;;;;8.43;100.00;99932.56;5033587;28;20033;-73
2023/12/11 08:38:36;;;;;;;18.23;3.67;;;;;;;8.43;100.00;99936.94;5033672;28;20060;-73
2023/12/11 08:41:02;;;;;;;14.45;3.42;;;;;;;8.42;100.00;99956.97;5034678;28;20021;-73
2023/12/11 08:43:27;;;;;;;17.58;2.90;;;;;;;8.40;100.00;99958.78;5034000;28;20037;-73
2023/12/11 08:45:53;;;;;;;15.18;3.17;;;;;;;8.41;100.00;99955.22;5034605;28;20068;-73
2023/12/11 08:48:18;;;;;;;10.02;2.80;;;;;;;8.41;100.00;99970.06;5034397;28;20107;-73
2023/12/11 08:50:43;;;;;;;12.38;2.40;;;;;;;8.43;100.00;99973.47;5033475;28;20096;-73
2023/12/11 08:53:09;;;;;;;12.07;2.63;;;;;;;8.43;100.00;99961.25;5014814;28;20104;-73
2023/12/11 08:55:35;;;;;;;11.57;2.75;;;;;;;8.48;100.00;99976.72;5037222;28;20033;-73
2023/12/11 08:58:00;;;;;;;10.65;2.70;;;;;;;8.50;100.00;99984.47;5032647;28;20033;-73
2023/12/11 09:00:26;;;;;;;12.95;2.72;;;;;;;8.51;100.00;99981.78;5032211;28;20491;-73
2023/12/11 09:02:51;;;;;;;11.32;2.22;;;;;;;8.53;100.00;99995.63;5033538;28;20194;-73
2023/12/11 09:05:17;;;;;;;15.43;2.60;;;;;;;8.51;100.00;99997.44;5015731;28;20041;-73
2023/12/11 09:07:43;;;;;;;9.48;2.78;;;;;;;8.52;100.00;100006.13;5033389;28;20333;-73
2023/12/11 09:10:09;;;;;;;13.73;2.95;;;;;;;8.48;100.00;100012.38;5033839;28;20037;-73
2023/12/11 09:12:35;;;;;;;13.65;2.53;;;;;;;8.53;100.00;100016.50;5016059;28;20041;-73
2023/12/11 09:15:02;;;;;;;13.77;2.88;;;;;;;8.50;100.00;100024.47;5034466;28;20021;-73
2023/12/11 09:17:28;;;;;;;18.90;3.13;;;;;;;8.51;100.00;100030.50;5033873;28;20279;-73
2023/12/11 09:19:53;;;;;;;11.40;2.55;;;;;;;8.49;100.00;100038.41;5034764;28;20101;-73
2023/12/11 09:22:18;;;;;;;10.63;2.33;;;;;;;8.51;100.00;100038.34;5034012;28;20037;-73
2023/12/11 09:24:44;;;;;;;10.93;2.70;;;;;;;8.47;100.00;100044.63;5032498;28;20106;-73
2023/12/11 09:27:09;;;;;;;19.30;2.75;;;;;;;8.47;100.00;100055.06;5033744;28;20324;-73
2023/12/11 09:29:35;;;;;;;15.00;2.85;;;;;;;8.45;100.00;100048.13;5032196;28;20069;-73
2023/12/11 09:32:00;;;;;;;16.45;2.42;;;;;;;8.47;100.00;100058.50;5032890;28;20048;-73
2023/12/11 09:34:26;;;;;;;6.70;1.80;;;;;;;8.50;100.00;100062.75;5033221;28;20224;-74
2023/12/11 09:36:51;;;;;;;4.82;1.80;;;;;;;8.52;100.00;100079.19;5033525;28;20208;-73
2023/12/11 09:39:16;;;;;;;14.88;2.40;;;;;;;8.48;100.00;100081.09;5033782;28;20268;-73
2023/12/11 09:41:43;;;;;;;8.48;2.17;;;;;;;8.50;100.00;100086.25;5033674;28;20037;-73
2023/12/11 09:44:09;;;;;;;12.10;1.95;;;;;;;8.51;100.00;100098.38;5034417;28;20060;-73
2023/12/11 09:46:47;;;;;;;6.10;1.75;;;;;;;8.52;100.00;100097.47;5033614;28;20328;-73
2023/12/11 09:49:12;;;;;;;6.25;2.20;;;;;;;8.52;100.00;100105.28;5033436;28;20096;-73
2023/12/11 09:51:38;;;;;;;8.73;2.25;;;;;;;8.51;100.00;100107.03;5032230;28;20290;-73
2023/12/11 09:54:03;;;;;;;10.32;1.98;;;;;;;8.56;100.00;100120.75;5032943;28;20037;-73
2023/12/11 09:56:30;;;;;;;16.63;2.67;;;;;;;8.55;100.00;100118.19;5032327;28;20116;-73
2023/12/11 09:58:56;;;;;;;15.05;2.40;;;;;;;8.51;100.00;100135.75;5033089;28;20037;-73
2023/12/11 10:01:23;;;;;;;12.07;2.70;;;;;;;8.52;100.00;100145.28;5032766;28;20097;-73
2023/12/11 10:03:48;;;;;;;16.52;2.20;;;;;;;8.53;100.00;100144.38;5032792;28;20041;-73
2023/12/11 10:06:13;;;;;;;10.38;2.22;;;;;;;8.50;100.00;100147.09;5037691;28;20043;-73
2023/12/11 10:08:43;;;;;;;11.05;1.90;;;;;;;8.52;100.00;100149.66;5037539;28;20048;-73
2023/12/11 10:11:15;;;;;;;7.15;2.03;;;;;;;8.56;100.00;100175.53;5020059;28;20032;-73
2023/12/11 10:13:42;;;;;;;11.63;2.10;;;;;;;8.54;100.00;100159.09;5037449;28;20045;-73
2023/12/11 10:16:30;;;;;;;7.22;2.22;;;;;;;8.51;100.00;100166.22;5037985;28;20380;-73
2023/12/11 10:18:56;;;;;;;15.30;2.30;;;;;;;8.51;100.00;100176.66;5038029;28;20108;-73
2023/12/11 10:21:25;;;;;;;7.80;1.70;;;;;;;8.50;100.00;100188.03;5036611;28;20029;-73
2023/12/11 10:24:05;;;;;;;9.75;1.90;;;;;;;8.47;100.00;100194.22;5037523;28;20072;-73
2023/12/11 10:26:36;;;;;;;5.97;1.75;;;;;;;8.47;100.00;100191.59;5037435;28;20104;-73
2023/12/11 10:29:21;;;;;;;12.70;2.75;;;;;;;8.45;100.00;100191.66;5044143;28;20053;-73
2023/12/11 10:31:51;;;;;;;11.68;2.45;;;;;;;8.41;100.00;100189.22;5055638;28;20039;-73
2023/12/11 10:34:17;;;;;;;9.02;2.22;;;;;;;8.37;100.00;100195.50;5057405;28;20052;-73
2023/12/11 10:36:50;;;;;;;11.57;2.42;;;;;;;8.38;100.00;100195.41;5056759;28;20057;-73
2023/12/11 10:39:16;;;;;;;9.63;2.75;;;;;;;8.38;100.00;100211.06;5055793;28;20288;-73
2023/12/11 10:41:45;;;;;;;7.60;1.85;;;;;;;8.44;100.00;100209.97;5056821;28;20039;-73
2023/12/11 10:44:21;;;;;;;6.75;2.00;;;;;;;8.47;100.00;100219.47;5057554;28;20041;-73
2023/12/11 10:46:49;;;;;;;14.35;3.58;;;;;;;8.49;100.00;100217.63;5057094;28;20048;-73
2023/12/11 10:49:15;;;;;;;11.32;2.50;;;;;;;8.50;100.00;100217.56;5056985;28;20057;-73
2023/12/11 10:51:41;;;;;;;8.90;3.00;;;;;;;8.52;100.00;100227.97;5056603;28;20197;-73
2023/12/11 10:54:06;;;;;;;10.00;2.95;;;;;;;8.52;100.00;100228.78;5056951;28;20059;-73
2023/12/11 10:56:32;;;;;;;6.95;2.28;;;;;;;8.56;100.00;100232.97;5054964;28;20036;-73
2023/12/11 10:58:58;;;;;;;7.57;2.83;;;;;;;8.54;100.00;100229.56;5057344;28;20074;-73
2023/12/11 11:01:24;;;;;;;6.25;2.03;;;;;;;8.57;100.00;100236.44;5056630;28;20305;-73
2023/12/11 11:03:49;;;;;;;17.15;3.50;;;;;;;8.57;100.00;100239.06;5056427;28;20036;-73
2023/12/11 11:06:16;;;;;;;18.00;3.20;;;;;;;8.59;100.00;100239.84;5057141;28;20033;-73
2023/12/11 11:09:07;;;;;;;9.05;2.22;;;;;;;8.60;100.00;100244.13;5056131;28;20033;-73
2023/12/11 11:11:37;;;;;;;13.13;3.20;;;;;;;8.58;100.00;100245.97;5056141;28;20272;-73
2023/12/11 11:14:23;;;;;;;10.40;2.67;;;;;;;8.62;100.00;100244.91;5056700;28;20108;-73
2023/12/11 11:16:52;;;;;;;10.15;2.50;;;;;;;8.60;100.00;100247.59;5056097;28;20085;-73
2023/12/11 11:19:18;;;;;;;9.70;2.28;;;;;;;8.61;100.00;100254.50;5056808;28;20271;-73